createdAt,value
2023-05-09T00:00:06.445Z,21.17
2023-05-09T00:01:13.062Z,21.17
2023-05-09T00:02:14.971Z,21.20
2023-05-09T00:03:16.893Z,21.18
2023-05-09T00:04:19.731Z,21.17
2023-05-09T00:05:21.877Z,21.17
2023-05-09T00:06:23.688Z,21.12
2023-05-09T00:07:25.710Z,21.15
2023-05-09T00:08:27.932Z,21.14
2023-05-09T00:09:29.735Z,21.14
2023-05-09T00:10:31.534Z,21.14
2023-05-09T00:11:33.483Z,21.13
2023-05-09T00:12:35.700Z,21.13
2023-05-09T00:13:37.771Z,21.12
2023-05-09T00:14:40.786Z,21.11
2023-05-09T00:15:42.580Z,21.11
2023-05-09T00:16:47.356Z,21.10
2023-05-09T00:17:50.706Z,21.11
2023-05-09T00:18:52.910Z,21.11
2023-05-09T00:19:55.519Z,21.09
2023-05-09T00:20:57.764Z,21.10
2023-05-09T00:21:59.632Z,21.10
2023-05-09T00:23:01.421Z,21.08
2023-05-09T00:24:03.211Z,21.07
2023-05-09T00:25:06.743Z,21.07
2023-05-09T00:26:09.530Z,21.07
2023-05-09T00:27:11.593Z,21.08
2023-05-09T00:28:13.432Z,21.08
2023-05-09T00:29:15.226Z,21.07
2023-05-09T00:30:17.409Z,21.07
2023-05-09T00:31:20.701Z,21.04
2023-05-09T00:32:22.799Z,21.05
2023-05-09T00:33:27.031Z,21.05
2023-05-09T00:34:29.012Z,21.03
2023-05-09T00:35:32.382Z,21.04
2023-05-09T00:36:34.217Z,21.04
2023-05-09T00:37:35.999Z,21.03
2023-05-09T00:38:38.304Z,21.02
2023-05-09T00:39:40.114Z,20.98
2023-05-09T00:40:41.907Z,21.02
2023-05-09T00:41:43.863Z,21.02
2023-05-09T00:42:45.918Z,21.01
2023-05-09T00:43:47.744Z,21.01
2023-05-09T00:44:49.621Z,21.02
2023-05-09T00:45:51.876Z,21.01
2023-05-09T00:46:53.734Z,20.98
2023-05-09T00:47:56.217Z,20.98
2023-05-09T00:48:58.141Z,20.95
2023-05-09T00:50:00.408Z,20.98
2023-05-09T00:51:02.529Z,20.97
2023-05-09T00:52:05.565Z,20.96
2023-05-09T00:53:08.319Z,20.97
2023-05-09T00:54:10.321Z,20.97
2023-05-09T00:55:13.517Z,20.95
2023-05-09T00:56:15.800Z,20.95
2023-05-09T00:57:17.676Z,20.96
2023-05-09T00:58:19.486Z,20.96
2023-05-09T00:59:22.056Z,20.95
2023-05-09T01:00:23.886Z,20.94
2023-05-09T01:01:26.214Z,20.93
2023-05-09T01:02:28.270Z,20.92
2023-05-09T01:03:31.402Z,20.93
2023-05-09T01:04:33.707Z,20.93
2023-05-09T01:05:47.660Z,20.88
2023-05-09T01:07:04.170Z,20.98
2023-05-09T01:08:44.868Z,21.06
2023-05-09T01:10:35.732Z,21.12
2023-05-09T01:12:30.219Z,21.19
2023-05-09T01:14:04.389Z,21.18
2023-05-09T01:15:15.257Z,21.11
2023-05-09T01:16:31.350Z,21.07
2023-05-09T01:17:52.152Z,21.03
2023-05-09T01:19:22.963Z,20.99
2023-05-09T01:20:36.346Z,21.02
2023-05-09T01:21:43.976Z,20.98
2023-05-09T01:22:52.782Z,20.95
2023-05-09T01:24:23.576Z,20.93
2023-05-09T01:25:55.549Z,21.02
2023-05-09T01:27:19.533Z,21.01
2023-05-09T01:28:58.789Z,21.04
2023-05-09T01:30:03.453Z,20.99
2023-05-09T01:31:08.969Z,20.92
2023-05-09T01:32:16.029Z,20.88
2023-05-09T01:33:20.459Z,20.87
2023-05-09T01:34:26.449Z,20.84
2023-05-09T01:35:31.546Z,20.77
2023-05-09T01:36:36.424Z,20.82
2023-05-09T01:37:42.415Z,20.82
2023-05-09T01:38:50.679Z,20.79
2023-05-09T01:39:56.374Z,20.82
2023-05-09T01:40:59.927Z,20.82
2023-05-09T01:42:03.799Z,20.77
2023-05-09T01:43:08.561Z,20.79
2023-05-09T01:44:13.706Z,20.76
2023-05-09T01:45:17.309Z,20.76
2023-05-09T01:46:20.683Z,20.78
2023-05-09T01:47:23.543Z,20.74
2023-05-09T01:48:28.163Z,20.77
2023-05-09T01:49:32.742Z,20.76
2023-05-09T01:50:35.992Z,20.77
2023-05-09T01:51:40.788Z,20.76
2023-05-09T01:52:48.052Z,20.71
2023-05-09T01:53:52.917Z,20.77
2023-05-09T01:54:55.798Z,20.77
2023-05-09T01:55:59.344Z,20.75
2023-05-09T01:57:03.202Z,20.76
2023-05-09T01:58:06.294Z,20.68
2023-05-09T01:59:08.403Z,20.76
2023-05-09T02:00:13.310Z,20.74
2023-05-09T02:01:16.206Z,20.72
2023-05-09T02:02:18.651Z,20.75
2023-05-09T02:03:22.024Z,20.72
2023-05-09T02:04:25.065Z,20.73
2023-05-09T02:05:29.625Z,20.73
2023-05-09T02:06:32.754Z,20.74
2023-05-09T02:07:35.163Z,20.72
2023-05-09T02:08:37.228Z,20.74
2023-05-09T02:09:39.126Z,20.73
2023-05-09T02:10:41.902Z,20.72
2023-05-09T02:11:43.701Z,20.62
2023-05-09T02:12:45.512Z,20.69
2023-05-09T02:13:47.433Z,20.64
2023-05-09T02:14:49.741Z,20.70
2023-05-09T02:15:52.251Z,20.71
2023-05-09T02:16:54.278Z,20.71
2023-05-09T02:17:56.739Z,20.69
2023-05-09T02:18:59.075Z,20.70
2023-05-09T02:20:01.071Z,20.70
2023-05-09T02:21:04.047Z,20.70
2023-05-09T02:22:06.017Z,20.71
2023-05-09T02:23:08.357Z,20.70
2023-05-09T02:24:10.293Z,20.70
2023-05-09T02:25:16.647Z,20.68
2023-05-09T02:26:19.123Z,20.71
2023-05-09T02:27:21.808Z,20.71
2023-05-09T02:28:27.455Z,20.63
2023-05-09T02:29:40.807Z,20.70
2023-05-09T02:30:45.839Z,20.72
2023-05-09T02:31:50.274Z,20.62
2023-05-09T02:32:56.989Z,20.71
2023-05-09T02:33:59.538Z,20.71
2023-05-09T02:35:04.139Z,20.71
2023-05-09T02:36:06.675Z,20.71
2023-05-09T02:37:10.424Z,20.70
2023-05-09T02:38:13.733Z,20.64
2023-05-09T02:39:16.155Z,20.68
2023-05-09T02:40:19.281Z,20.69
2023-05-09T02:41:21.914Z,20.69
2023-05-09T02:42:25.544Z,20.68
2023-05-09T02:43:27.351Z,20.68
2023-05-09T02:44:30.175Z,20.68
2023-05-09T02:45:32.236Z,20.68
2023-05-09T02:46:34.261Z,20.67
2023-05-09T02:47:36.236Z,20.67
2023-05-09T02:48:38.110Z,20.66
2023-05-09T02:49:40.327Z,20.66
2023-05-09T02:50:42.952Z,20.67
2023-05-09T02:51:44.796Z,20.66
2023-05-09T02:52:46.626Z,20.66
2023-05-09T02:53:48.605Z,20.67
2023-05-09T02:54:50.657Z,20.66
2023-05-09T02:55:53.961Z,20.67
2023-05-09T02:56:56.073Z,20.67
2023-05-09T02:58:12.029Z,20.65
2023-05-09T02:59:18.682Z,20.71
2023-05-09T03:00:21.728Z,20.70
2023-05-09T03:01:23.638Z,20.69
2023-05-09T03:02:26.151Z,20.67
2023-05-09T03:03:29.002Z,20.69
2023-05-09T03:04:31.613Z,20.56
2023-05-09T03:05:34.266Z,20.69
2023-05-09T03:06:36.550Z,20.67
2023-05-09T03:07:38.614Z,20.68
2023-05-09T03:08:40.672Z,20.66
2023-05-09T03:09:43.433Z,20.67
2023-05-09T03:10:46.128Z,20.66
2023-05-09T03:11:48.395Z,20.66
2023-05-09T03:12:50.290Z,20.66
2023-05-09T03:13:52.079Z,20.67
2023-05-09T03:14:53.876Z,20.68
2023-05-09T03:15:55.891Z,20.66
2023-05-09T03:16:57.679Z,20.66
2023-05-09T03:18:04.938Z,20.69
2023-05-09T03:19:07.142Z,20.67
2023-05-09T03:20:10.427Z,20.69
2023-05-09T03:21:12.838Z,20.70
2023-05-09T03:22:15.813Z,20.69
2023-05-09T03:23:34.993Z,20.75
2023-05-09T03:24:37.642Z,20.73
2023-05-09T03:25:39.416Z,20.73
2023-05-09T03:26:41.399Z,20.72
2023-05-09T03:27:43.205Z,20.71
2023-05-09T03:28:49.045Z,20.72
2023-05-09T03:29:51.099Z,20.71
2023-05-09T03:30:54.301Z,20.73
2023-05-09T03:31:59.509Z,20.73
2023-05-09T03:33:01.394Z,20.72
2023-05-09T03:34:03.209Z,20.73
2023-05-09T03:35:05.343Z,20.73
2023-05-09T03:36:08.737Z,20.75
2023-05-09T03:37:11.094Z,20.73
2023-05-09T03:38:15.183Z,20.76
2023-05-09T03:39:17.010Z,20.76
2023-05-09T03:40:21.690Z,20.77
2023-05-09T03:41:37.671Z,20.72
2023-05-09T03:42:40.610Z,20.82
2023-05-09T03:43:42.412Z,20.81
2023-05-09T03:44:44.252Z,20.81
2023-05-09T03:45:46.303Z,20.81
2023-05-09T03:46:50.246Z,20.82
2023-05-09T03:47:52.350Z,20.82
2023-05-09T03:48:54.168Z,20.83
2023-05-09T03:49:56.254Z,20.83
2023-05-09T03:50:58.860Z,20.84
2023-05-09T03:52:03.800Z,20.74
2023-05-09T03:53:06.524Z,20.87
2023-05-09T03:54:12.330Z,20.87
2023-05-09T03:55:14.955Z,20.90
2023-05-09T03:56:16.948Z,20.88
2023-05-09T03:57:24.418Z,20.90
2023-05-09T03:58:28.474Z,20.91
2023-05-09T03:59:31.000Z,20.88
2023-05-09T04:00:33.104Z,20.91
2023-05-09T04:01:42.486Z,20.93
2023-05-09T04:02:44.804Z,20.93
2023-05-09T04:03:57.639Z,20.96
2023-05-09T04:05:01.248Z,20.95
2023-05-09T04:06:03.318Z,20.95
2023-05-09T04:07:09.807Z,20.96
2023-05-09T04:08:11.733Z,20.95
2023-05-09T04:09:13.735Z,20.94
2023-05-09T04:10:17.085Z,20.86
2023-05-09T04:11:20.045Z,20.96
2023-05-09T04:12:23.154Z,20.97
2023-05-09T04:13:25.927Z,20.98
2023-05-09T04:14:28.172Z,20.98
2023-05-09T04:15:29.949Z,20.98
2023-05-09T04:16:33.415Z,20.93
2023-05-09T04:17:35.395Z,20.99
2023-05-09T04:18:39.974Z,21.01
2023-05-09T04:19:41.799Z,21.01
2023-05-09T04:20:43.605Z,21.02
2023-05-09T04:21:46.190Z,21.03
2023-05-09T04:22:48.099Z,21.03
2023-05-09T04:23:51.530Z,21.04
2023-05-09T04:24:58.334Z,21.07
2023-05-09T04:26:00.242Z,21.07
2023-05-09T04:27:02.616Z,21.06
2023-05-09T04:28:04.891Z,21.06
2023-05-09T04:29:07.001Z,21.04
2023-05-09T04:30:10.468Z,21.07
2023-05-09T04:31:14.822Z,21.09
2023-05-09T04:32:20.944Z,21.10
2023-05-09T04:33:24.232Z,21.11
2023-05-09T04:34:27.838Z,21.10
2023-05-09T04:35:31.182Z,21.12
2023-05-09T04:36:34.047Z,21.13
2023-05-09T04:37:36.032Z,21.12
2023-05-09T04:38:38.223Z,21.13
2023-05-09T04:39:44.341Z,21.14
2023-05-09T04:40:54.936Z,21.17
2023-05-09T04:41:56.696Z,21.16
2023-05-09T04:42:59.045Z,21.15
2023-05-09T04:44:03.821Z,21.15
2023-05-09T04:45:06.318Z,21.15
2023-05-09T04:46:08.454Z,21.16
2023-05-09T04:47:10.768Z,21.16
2023-05-09T04:48:12.876Z,21.16
2023-05-09T04:49:14.669Z,21.17
2023-05-09T04:50:17.107Z,21.17
2023-05-09T04:51:19.149Z,21.18
2023-05-09T04:52:20.995Z,21.18
2023-05-09T04:53:23.355Z,21.19
2023-05-09T04:54:26.118Z,21.20
2023-05-09T04:55:28.832Z,21.21
2023-05-09T04:56:31.602Z,21.22
2023-05-09T04:57:35.070Z,21.22
2023-05-09T04:58:39.496Z,21.22
2023-05-09T04:59:44.573Z,21.24
2023-05-09T05:00:49.444Z,21.24
2023-05-09T05:01:52.392Z,21.25
2023-05-09T05:02:55.848Z,21.25
2023-05-09T05:04:00.375Z,21.27
2023-05-09T05:05:10.993Z,21.25
2023-05-09T05:06:16.285Z,21.29
2023-05-09T05:07:18.106Z,21.28
2023-05-09T05:08:20.766Z,21.28
2023-05-09T05:09:23.519Z,21.29
2023-05-09T05:10:26.381Z,21.30
2023-05-09T05:11:36.590Z,21.34
2023-05-09T05:12:39.838Z,21.36
2023-05-09T05:13:45.530Z,21.37
2023-05-09T05:14:47.373Z,21.39
2023-05-09T05:15:53.504Z,21.43
2023-05-09T05:16:56.596Z,21.45
2023-05-09T05:17:59.257Z,21.48
2023-05-09T05:19:05.363Z,21.52
2023-05-09T05:20:11.712Z,21.56
2023-05-09T05:21:17.896Z,21.60
2023-05-09T05:22:20.390Z,21.62
2023-05-09T05:23:22.279Z,21.65
2023-05-09T05:24:27.731Z,21.69
2023-05-09T05:25:31.356Z,21.73
2023-05-09T05:26:35.068Z,21.77
2023-05-09T05:27:37.059Z,21.80
2023-05-09T05:28:39.284Z,21.84
2023-05-09T05:29:41.615Z,21.86
2023-05-09T05:30:43.450Z,21.91
2023-05-09T05:31:45.305Z,21.95
2023-05-09T05:32:47.411Z,21.99
2023-05-09T05:33:52.180Z,22.05
2023-05-09T05:34:55.361Z,22.07
2023-05-09T05:35:57.366Z,22.11
2023-05-09T05:36:59.202Z,22.14
2023-05-09T05:38:01.205Z,22.16
2023-05-09T05:39:03.599Z,22.22
2023-05-09T05:40:06.483Z,22.24
2023-05-09T05:41:11.968Z,22.29
2023-05-09T05:42:15.772Z,22.33
2023-05-09T05:43:18.887Z,22.36
2023-05-09T05:44:21.140Z,22.38
2023-05-09T05:45:23.119Z,22.41
2023-05-09T05:46:28.370Z,22.46
2023-05-09T05:47:33.209Z,22.47
2023-05-09T05:48:35.574Z,22.51
2023-05-09T05:49:37.333Z,22.53
2023-05-09T05:50:39.395Z,22.56
2023-05-09T05:51:41.209Z,22.58
2023-05-09T05:52:44.432Z,22.53
2023-05-09T05:53:49.465Z,22.64
2023-05-09T05:54:51.399Z,22.65
2023-05-09T05:55:53.343Z,22.67
2023-05-09T05:56:56.244Z,22.68
2023-05-09T05:57:58.074Z,22.70
2023-05-09T05:59:00.261Z,22.72
2023-05-09T06:00:05.818Z,22.75
2023-05-09T06:01:15.363Z,22.79
2023-05-09T06:02:18.548Z,22.81
2023-05-09T06:03:21.422Z,22.81
2023-05-09T06:04:32.777Z,22.85
2023-05-09T06:05:34.780Z,22.86
2023-05-09T06:06:36.988Z,22.85
2023-05-09T06:07:41.122Z,22.86
2023-05-09T06:08:43.881Z,22.89
2023-05-09T06:09:45.718Z,22.88
2023-05-09T06:10:47.712Z,22.89
2023-05-09T06:11:49.509Z,22.90
2023-05-09T06:12:51.347Z,22.91
2023-05-09T06:13:53.171Z,22.92
2023-05-09T06:14:54.949Z,22.92
2023-05-09T06:16:02.051Z,22.94
2023-05-09T06:17:10.085Z,22.99
2023-05-09T06:18:12.067Z,22.99
2023-05-09T06:19:13.871Z,23.00
2023-05-09T06:20:15.843Z,23.01
2023-05-09T06:21:17.757Z,23.00
2023-05-09T06:22:19.540Z,23.03
2023-05-09T06:23:22.198Z,23.04
2023-05-09T06:24:35.231Z,23.05
2023-05-09T06:25:38.644Z,23.09
2023-05-09T06:26:41.980Z,23.04
2023-05-09T06:27:44.743Z,23.09
2023-05-09T06:28:46.504Z,23.09
2023-05-09T06:29:48.350Z,23.10
2023-05-09T06:30:50.400Z,23.10
2023-05-09T06:31:52.702Z,23.11
2023-05-09T06:32:55.333Z,23.11
2023-05-09T06:33:57.336Z,23.13
2023-05-09T06:34:59.218Z,23.12
2023-05-09T06:36:00.982Z,23.13
2023-05-09T06:37:03.323Z,23.13
2023-05-09T06:38:05.206Z,23.13
2023-05-09T06:39:07.094Z,23.14
2023-05-09T06:40:09.340Z,23.13
2023-05-09T06:41:11.251Z,23.14
2023-05-09T06:42:13.009Z,23.15
2023-05-09T06:43:14.946Z,23.14
2023-05-09T06:44:16.719Z,23.16
2023-05-09T06:45:18.942Z,23.12
2023-05-09T06:46:20.928Z,23.16
2023-05-09T06:47:22.727Z,23.15
2023-05-09T06:48:24.715Z,23.15
2023-05-09T06:49:26.545Z,23.15
2023-05-09T06:50:28.871Z,23.15
2023-05-09T06:51:32.074Z,23.14
2023-05-09T06:52:33.904Z,23.15
2023-05-09T06:53:35.703Z,23.16
2023-05-09T06:54:37.484Z,23.16
2023-05-09T06:55:39.256Z,23.16
2023-05-09T06:56:41.401Z,23.17
2023-05-09T06:57:43.358Z,23.16
2023-05-09T06:58:45.180Z,23.16
2023-05-09T06:59:47.160Z,23.16
2023-05-09T07:00:49.195Z,23.13
2023-05-09T07:01:51.016Z,23.13
2023-05-09T07:02:52.951Z,23.16
2023-05-09T07:03:54.898Z,23.17
2023-05-09T07:04:56.675Z,23.17
2023-05-09T07:06:00.130Z,23.17
2023-05-09T07:07:02.153Z,23.18
2023-05-09T07:08:04.209Z,23.17
2023-05-09T07:09:06.103Z,23.17
2023-05-09T07:10:11.881Z,23.17
2023-05-09T07:11:14.343Z,23.19
2023-05-09T07:12:16.256Z,23.19
2023-05-09T07:13:18.156Z,23.18
2023-05-09T07:14:20.600Z,23.18
2023-05-09T07:15:36.789Z,23.18
2023-05-09T07:16:42.869Z,23.25
2023-05-09T07:17:44.786Z,23.22
2023-05-09T07:18:46.684Z,23.20
2023-05-09T07:19:48.613Z,23.18
2023-05-09T07:20:51.025Z,23.20
2023-05-09T07:21:52.841Z,23.17
2023-05-09T07:22:54.763Z,23.19
2023-05-09T07:23:56.659Z,23.20
2023-05-09T07:24:58.709Z,23.13
2023-05-09T07:26:01.415Z,23.20
2023-05-09T07:27:03.947Z,23.21
2023-05-09T07:28:05.927Z,23.22
2023-05-09T07:29:07.823Z,23.21
2023-05-09T07:30:10.153Z,23.22
2023-05-09T07:31:12.016Z,23.22
2023-05-09T07:32:13.979Z,23.22
2023-05-09T07:33:15.854Z,23.17
2023-05-09T07:34:19.899Z,23.21
2023-05-09T07:35:21.933Z,23.25
2023-05-09T07:36:23.721Z,23.25
2023-05-09T07:37:25.643Z,23.25
2023-05-09T07:38:27.426Z,23.25
2023-05-09T07:39:29.200Z,23.25
2023-05-09T07:40:31.854Z,23.26
2023-05-09T07:41:33.705Z,23.27
2023-05-09T07:42:35.691Z,23.26
2023-05-09T07:43:37.506Z,23.13
2023-05-09T07:44:39.320Z,23.27
2023-05-09T07:46:42.996Z,23.27
2023-05-09T07:47:44.935Z,23.28
2023-05-09T07:48:46.792Z,23.27
2023-05-09T07:49:48.656Z,23.28
2023-05-09T07:50:50.782Z,23.27
2023-05-09T07:51:52.738Z,23.28
2023-05-09T07:52:55.693Z,23.12
2023-05-09T07:53:57.510Z,23.27
2023-05-09T07:54:59.333Z,23.25
2023-05-09T07:56:01.122Z,23.27
2023-05-09T07:57:02.999Z,23.26
2023-05-09T07:58:04.833Z,23.27
2023-05-09T07:59:06.614Z,23.26
2023-05-09T08:00:09.066Z,23.27
2023-05-09T08:01:16.725Z,23.16
2023-05-09T08:02:18.852Z,23.26
2023-05-09T08:03:21.003Z,23.27
2023-05-09T08:04:22.959Z,23.29
2023-05-09T08:05:24.849Z,23.26
2023-05-09T08:06:26.777Z,23.26
2023-05-09T08:07:28.558Z,23.26
2023-05-09T08:08:30.472Z,23.25
2023-05-09T08:09:32.438Z,23.26
2023-05-09T08:10:34.834Z,23.26
2023-05-09T08:11:36.973Z,23.26
2023-05-09T08:12:39.638Z,23.25
2023-05-09T08:14:43.521Z,23.21
2023-05-09T08:15:45.613Z,23.25
2023-05-09T08:16:47.466Z,23.25
2023-05-09T08:17:49.286Z,23.25
2023-05-09T08:18:51.214Z,23.09
2023-05-09T08:19:53.071Z,23.25
2023-05-09T08:20:54.907Z,23.20
2023-05-09T08:21:56.905Z,23.19
2023-05-09T08:22:58.678Z,23.25
2023-05-09T08:24:01.851Z,23.25
2023-05-09T08:25:03.690Z,23.23
2023-05-09T08:26:05.588Z,23.25
2023-05-09T08:27:07.384Z,23.25
2023-05-09T08:28:09.217Z,23.26
2023-05-09T08:29:11.505Z,23.25
2023-05-09T08:30:13.933Z,23.27
2023-05-09T08:31:15.953Z,23.26
2023-05-09T08:32:19.941Z,23.27
2023-05-09T08:33:21.720Z,23.27
2023-05-09T08:34:23.532Z,23.19
2023-05-09T08:35:25.541Z,23.27
2023-05-09T08:36:27.295Z,23.26
2023-05-09T08:37:29.165Z,23.26
2023-05-09T08:38:31.079Z,23.26
2023-05-09T08:39:34.931Z,23.27
2023-05-09T08:40:40.662Z,23.27
2023-05-09T08:41:43.252Z,23.27
2023-05-09T08:42:48.794Z,23.28
2023-05-09T08:43:50.697Z,23.29
2023-05-09T08:44:52.936Z,23.26
2023-05-09T08:46:00.689Z,23.26
2023-05-09T08:47:04.492Z,23.24
2023-05-09T08:48:07.064Z,23.29
2023-05-09T08:49:09.210Z,23.20
2023-05-09T08:50:11.971Z,23.28
2023-05-09T08:51:16.141Z,23.24
2023-05-09T08:52:18.569Z,23.27
2023-05-09T08:53:21.815Z,23.25
2023-05-09T08:54:25.107Z,23.27
2023-05-09T08:55:27.719Z,23.29
2023-05-09T08:56:31.284Z,23.14
2023-05-09T08:57:36.820Z,23.30
2023-05-09T08:58:39.159Z,23.30
2023-05-09T08:59:42.593Z,23.27
2023-05-09T09:00:45.330Z,23.30
2023-05-09T09:01:48.066Z,23.29
2023-05-09T09:02:50.449Z,23.30
2023-05-09T09:03:52.635Z,23.30
2023-05-09T09:04:55.270Z,23.30
2023-05-09T09:05:58.247Z,23.30
2023-05-09T09:07:01.261Z,23.25
2023-05-09T09:08:07.260Z,23.31
2023-05-09T09:09:09.317Z,23.33
2023-05-09T09:10:12.291Z,23.32
2023-05-09T09:11:16.175Z,23.32
2023-05-09T09:12:18.547Z,23.32
2023-05-09T09:13:21.183Z,23.16
2023-05-09T09:14:28.727Z,23.34
2023-05-09T09:15:35.947Z,23.35
2023-05-09T09:16:38.625Z,23.37
2023-05-09T09:17:42.949Z,23.37
2023-05-09T09:18:45.897Z,23.38
2023-05-09T09:19:50.380Z,23.38
2023-05-09T09:21:07.268Z,23.44
2023-05-09T09:22:13.902Z,23.43
2023-05-09T09:23:19.946Z,23.43
2023-05-09T09:24:23.321Z,23.45
2023-05-09T09:25:25.158Z,23.46
2023-05-09T09:26:29.364Z,23.47
2023-05-09T09:27:32.129Z,23.47
2023-05-09T09:28:34.252Z,23.47
2023-05-09T09:29:36.160Z,23.49
2023-05-09T09:30:44.044Z,23.44
2023-05-09T09:31:46.834Z,23.53
2023-05-09T09:32:48.816Z,23.55
2023-05-09T09:33:51.631Z,23.54
2023-05-09T09:35:07.029Z,23.58
2023-05-09T09:36:09.145Z,23.62
2023-05-09T09:37:22.563Z,23.60
2023-05-09T09:38:24.898Z,23.64
2023-05-09T09:39:26.704Z,23.65
2023-05-09T09:40:28.663Z,23.62
2023-05-09T09:41:40.024Z,23.65
2023-05-09T09:42:47.349Z,23.69
2023-05-09T09:43:49.137Z,23.71
2023-05-09T09:45:02.388Z,23.70
2023-05-09T09:46:05.212Z,23.74
2023-05-09T09:47:10.653Z,23.74
2023-05-09T09:48:12.457Z,23.76
2023-05-09T09:49:15.811Z,23.76
2023-05-09T09:50:19.571Z,23.76
2023-05-09T09:51:21.634Z,23.73
2023-05-09T09:52:27.288Z,23.79
2023-05-09T09:53:32.023Z,23.81
2023-05-09T09:54:34.015Z,23.83
2023-05-09T09:55:35.936Z,23.82
2023-05-09T09:56:42.889Z,23.83
2023-05-09T09:57:46.029Z,23.87
2023-05-09T09:58:47.980Z,23.88
2023-05-09T09:59:58.813Z,23.89
2023-05-09T10:01:13.976Z,23.93
2023-05-09T10:02:16.596Z,23.96
2023-05-09T10:03:18.532Z,23.97
2023-05-09T10:04:20.557Z,23.96
2023-05-09T10:05:28.034Z,23.96
2023-05-09T10:06:29.829Z,23.99
2023-05-09T10:07:33.885Z,23.99
2023-05-09T10:08:35.701Z,23.99
2023-05-09T10:09:41.030Z,24.02
2023-05-09T10:10:42.953Z,24.03
2023-05-09T10:11:48.501Z,24.03
2023-05-09T10:12:51.166Z,24.05
2023-05-09T10:13:53.245Z,24.07
2023-05-09T10:14:55.401Z,24.05
2023-05-09T10:15:58.411Z,24.04
2023-05-09T10:17:02.467Z,24.05
2023-05-09T10:18:05.731Z,24.06
2023-05-09T10:19:07.975Z,24.06
2023-05-09T10:20:12.649Z,24.05
2023-05-09T10:21:15.862Z,24.05
2023-05-09T10:22:19.366Z,24.04
2023-05-09T10:23:23.093Z,24.06
2023-05-09T10:24:51.392Z,24.12
2023-05-09T10:26:16.859Z,24.16
2023-05-09T10:27:23.033Z,24.14
2023-05-09T10:28:32.585Z,24.12
2023-05-09T10:29:39.476Z,24.11
2023-05-09T10:30:58.949Z,24.11
2023-05-09T10:32:08.410Z,24.10
2023-05-09T10:33:13.437Z,24.11
2023-05-09T10:34:16.040Z,24.10
2023-05-09T10:35:19.610Z,24.04
2023-05-09T10:36:23.988Z,24.08
2023-05-09T10:37:26.689Z,24.09
2023-05-09T10:38:29.023Z,24.07
2023-05-09T10:39:31.113Z,24.08
2023-05-09T10:40:34.786Z,24.07
2023-05-09T10:41:37.524Z,24.08
2023-05-09T10:42:39.530Z,24.09
2023-05-09T10:43:42.776Z,24.08
2023-05-09T10:44:45.195Z,24.09
2023-05-09T10:45:47.640Z,24.04
2023-05-09T10:46:49.788Z,24.09
2023-05-09T10:47:56.679Z,24.10
2023-05-09T10:48:59.339Z,24.13
2023-05-09T10:50:01.883Z,24.13
2023-05-09T10:51:04.434Z,23.95
2023-05-09T10:52:06.976Z,24.14
2023-05-09T10:53:19.829Z,24.15
2023-05-09T10:54:33.629Z,24.21
2023-05-09T10:55:47.801Z,24.25
2023-05-09T10:56:49.570Z,24.26
2023-05-09T10:57:55.064Z,24.24
2023-05-09T10:58:57.452Z,24.26
2023-05-09T11:00:00.595Z,24.26
2023-05-09T11:01:04.586Z,24.25
2023-05-09T11:02:12.764Z,24.27
2023-05-09T11:03:14.640Z,24.29
2023-05-09T11:04:17.302Z,24.25
2023-05-09T11:05:20.342Z,24.23
2023-05-09T11:06:44.830Z,24.32
2023-05-09T11:07:46.864Z,24.21
2023-05-09T11:08:48.638Z,24.31
2023-05-09T11:10:08.028Z,24.28
2023-05-09T11:11:25.759Z,24.32
2023-05-09T11:12:27.761Z,24.35
2023-05-09T11:13:37.694Z,24.31
2023-05-09T11:14:43.235Z,24.31
2023-05-09T11:16:04.445Z,24.36
2023-05-09T11:17:12.958Z,24.34
2023-05-09T11:18:15.266Z,24.34
2023-05-09T11:19:35.147Z,24.35
2023-05-09T11:20:43.563Z,24.34
2023-05-09T11:22:02.974Z,24.37
2023-05-09T11:23:06.949Z,24.37
2023-05-09T11:24:19.086Z,24.34
2023-05-09T11:25:28.116Z,24.32
2023-05-09T11:26:30.635Z,24.32
2023-05-09T11:27:45.480Z,24.30
2023-05-09T11:28:53.706Z,24.32
2023-05-09T11:29:59.871Z,24.31
2023-05-09T11:31:18.104Z,24.34
2023-05-09T11:32:22.057Z,24.33
2023-05-09T11:33:27.604Z,24.32
2023-05-09T11:34:29.863Z,24.31
2023-05-09T11:35:31.780Z,24.29
2023-05-09T11:36:33.997Z,24.28
2023-05-09T11:38:06.085Z,24.36
2023-05-09T11:39:10.179Z,24.35
2023-05-09T11:40:13.495Z,24.33
2023-05-09T11:41:15.935Z,24.32
2023-05-09T11:42:18.244Z,24.29
2023-05-09T11:43:20.132Z,24.29
2023-05-09T11:44:21.943Z,24.29
2023-05-09T11:45:26.888Z,24.26
2023-05-09T11:46:29.455Z,24.31
2023-05-09T11:47:31.447Z,24.26
2023-05-09T11:48:40.939Z,24.33
2023-05-09T11:49:45.704Z,24.34
2023-05-09T11:50:48.356Z,24.37
2023-05-09T11:51:50.260Z,24.37
2023-05-09T11:52:52.178Z,24.37
2023-05-09T11:53:54.202Z,24.38
2023-05-09T11:54:58.063Z,24.32
2023-05-09T11:56:04.218Z,24.38
2023-05-09T11:57:06.970Z,24.42
2023-05-09T11:58:09.672Z,24.41
2023-05-09T11:59:13.259Z,24.42
2023-05-09T12:00:20.779Z,24.43
2023-05-09T12:01:23.288Z,24.44
2023-05-09T12:02:25.199Z,24.45
2023-05-09T12:03:27.341Z,24.46
2023-05-09T12:04:31.998Z,24.46
2023-05-09T12:05:33.905Z,24.48
2023-05-09T12:06:36.369Z,24.48
2023-05-09T12:07:39.701Z,24.49
2023-05-09T12:08:41.617Z,24.49
2023-05-09T12:09:43.880Z,24.51
2023-05-09T12:10:45.671Z,24.53
2023-05-09T12:11:50.111Z,24.53
2023-05-09T12:12:55.585Z,24.56
2023-05-09T12:13:57.632Z,24.59
2023-05-09T12:15:04.271Z,24.53
2023-05-09T12:16:09.122Z,24.60
2023-05-09T12:17:11.062Z,24.63
2023-05-09T12:18:12.961Z,24.63
2023-05-09T12:19:15.191Z,24.63
2023-05-09T12:20:17.295Z,24.64
2023-05-09T12:21:20.087Z,24.63
2023-05-09T12:22:22.163Z,24.63
2023-05-09T12:23:23.937Z,24.63
2023-05-09T12:24:29.574Z,24.63
2023-05-09T12:25:31.426Z,24.62
2023-05-09T12:26:33.857Z,24.62
2023-05-09T12:27:37.009Z,24.61
2023-05-09T12:28:39.501Z,24.61
2023-05-09T12:29:45.940Z,24.58
2023-05-09T12:30:47.911Z,24.62
2023-05-09T12:31:51.049Z,24.60
2023-05-09T12:32:53.187Z,24.60
2023-05-09T12:33:55.523Z,24.60
2023-05-09T12:34:58.642Z,24.59
2023-05-09T12:36:09.614Z,24.59
2023-05-09T12:37:16.373Z,24.60
2023-05-09T12:38:22.691Z,24.61
2023-05-09T12:39:24.713Z,24.62
2023-05-09T12:40:26.953Z,24.62
2023-05-09T12:41:39.205Z,24.61
2023-05-09T12:42:45.122Z,24.65
2023-05-09T12:43:49.691Z,24.64
2023-05-09T12:44:51.592Z,24.65
2023-05-09T12:45:53.596Z,24.65
2023-05-09T12:47:04.968Z,24.66
2023-05-09T12:48:09.268Z,24.67
2023-05-09T12:49:21.784Z,24.68
2023-05-09T12:50:34.877Z,24.68
2023-05-09T12:51:36.789Z,24.70
2023-05-09T12:52:50.755Z,24.67
2023-05-09T12:54:04.702Z,24.72
2023-05-09T12:55:11.473Z,24.72
2023-05-09T12:56:23.474Z,24.72
2023-05-09T12:57:29.372Z,24.74
2023-05-09T12:58:33.638Z,24.74
2023-05-09T12:59:35.538Z,24.72
2023-05-09T13:00:46.180Z,24.72
2023-05-09T13:01:54.058Z,24.73
2023-05-09T13:02:56.079Z,24.75
2023-05-09T13:04:06.405Z,24.74
2023-05-09T13:05:13.250Z,24.71
2023-05-09T13:06:15.360Z,24.76
2023-05-09T13:07:17.169Z,24.74
2023-05-09T13:08:21.581Z,24.72
2023-05-09T13:09:25.288Z,24.71
2023-05-09T13:10:29.054Z,24.74
2023-05-09T13:11:30.866Z,24.74
2023-05-09T13:12:33.636Z,24.74
2023-05-09T13:13:35.466Z,24.73
2023-05-09T13:14:37.345Z,24.73
2023-05-09T13:15:39.237Z,24.73
2023-05-09T13:16:41.275Z,24.72
2023-05-09T13:17:43.107Z,24.73
2023-05-09T13:18:44.963Z,24.73
2023-05-09T13:19:47.018Z,24.73
2023-05-09T13:20:48.776Z,24.73
2023-05-09T13:21:50.632Z,24.71
2023-05-09T13:22:52.524Z,24.71
2023-05-09T13:23:54.515Z,24.72
2023-05-09T13:24:56.626Z,24.72
2023-05-09T13:25:58.412Z,24.72
2023-05-09T13:27:00.168Z,24.72
2023-05-09T13:28:02.150Z,24.71
2023-05-09T13:29:04.208Z,24.71
2023-05-09T13:30:09.468Z,24.70
2023-05-09T13:31:11.506Z,24.71
2023-05-09T13:32:13.439Z,24.71
2023-05-09T13:33:25.112Z,24.69
2023-05-09T13:34:28.378Z,24.71
2023-05-09T13:35:30.330Z,24.70
2023-05-09T13:36:32.620Z,24.69
2023-05-09T13:37:35.222Z,24.68
2023-05-09T13:38:40.413Z,24.68
2023-05-09T13:39:42.249Z,24.67
2023-05-09T13:40:44.051Z,24.67
2023-05-09T13:41:46.187Z,24.66
2023-05-09T13:42:49.008Z,24.65
2023-05-09T13:43:50.938Z,24.64
2023-05-09T13:44:52.714Z,24.62
2023-05-09T13:45:54.523Z,24.63
2023-05-09T13:46:58.368Z,24.63
2023-05-09T13:48:00.264Z,24.62
2023-05-09T13:49:02.242Z,24.62